Time;durP1;ratioP1;P1;durP2;ratioP2;P2;SDS_P1;SDS_P2;PMS_P1;PMS_P2;Temp;Humidity;BMP_temperature;BMP_pressure;BME280_temperature;BME280_humidity;BME280_pressure;Samples;Min_cycle;Max_cycle;Signal;HPM_P1;HPM_P2
2021/08/10 00:00:39;;;;;;;;;7.00;4.33;;;;;20.70;52.96;101433.63;5081149;27;45441;-91
2021/08/10 00:03:05;;;;;;;;;6.33;5.00;;;;;20.69;53.48;101428.47;5080916;27;46932;-90
2021/08/10 00:05:30;;;;;;;;;2.00;2.00;;;;;20.68;53.35;101426.75;5080818;27;45426;-90
2021/08/10 00:07:56;;;;;;;;;4.33;4.33;;;;;20.68;53.27;101438.19;5080842;27;45334;-90
2021/08/10 00:10:22;;;;;;;;;6.00;6.00;;;;;20.68;53.41;101442.63;5081056;27;45343;-90
2021/08/10 00:12:47;;;;;;;;;4.33;3.67;;;;;20.66;53.25;101448.03;5080833;27;47027;-91
2021/08/10 00:15:14;;;;;;;;;4.67;4.67;;;;;20.63;53.58;101439.44;5097702;27;45257;-91
2021/08/10 00:17:39;;;;;;;;;3.33;3.33;;;;;20.62;53.32;101441.25;5080761;27;44857;-91
2021/08/10 00:20:06;;;;;;;;;4.00;4.00;;;;;20.61;53.66;101434.28;5097744;27;45313;-90
2021/08/10 00:22:31;;;;;;;;;6.67;5.33;;;;;20.60;53.14;101437.03;5097411;27;47039;-91
2021/08/10 00:24:57;;;;;;;;;5.00;4.67;;;;;20.58;53.78;101429.19;5096788;27;45398;-91
2021/08/10 00:27:22;;;;;;;;;4.33;4.33;;;;;20.56;53.53;101428.47;5080728;27;45508;-90
2021/08/10 00:29:48;;;;;;;;;4.33;4.33;;;;;20.55;53.77;101427.59;5098958;27;45661;-91
2021/08/10 00:32:14;;;;;;;;;4.33;4.00;;;;;20.52;53.77;101424.31;5080589;27;47008;-91
2021/08/10 00:34:39;;;;;;;;;3.33;3.33;;;;;20.49;53.85;101422.72;5097245;27;45661;-91
2021/08/10 00:37:05;;;;;;;;;5.00;4.00;;;;;20.46;53.70;101422.91;5080348;27;45446;-91
2021/08/10 00:39:31;;;;;;;;;5.33;4.67;;;;;20.45;53.67;101430.97;5077306;28;45426;-90
2021/08/10 00:41:56;;;;;;;;;4.00;3.67;;;;;20.43;53.73;101431.06;5092272;27;47019;-91
2021/08/10 00:44:22;;;;;;;;;6.33;4.67;;;;;20.41;53.97;101428.53;5098413;27;45361;-90
2021/08/10 00:46:47;;;;;;;;;4.00;4.00;;;;;20.37;54.41;101423.56;5080416;27;45317;-90
2021/08/10 00:49:13;;;;;;;;;6.00;5.00;;;;;20.36;54.38;101421.88;5080440;27;45508;-90
2021/08/10 00:51:38;;;;;;;;;4.67;4.33;;;;;20.32;54.31;101421.19;5079446;27;48442;-90
2021/08/10 00:54:05;;;;;;;;;7.33;4.67;;;;;20.26;54.53;101422.47;5079177;27;46070;-90
2021/08/10 00:56:31;;;;;;;;;7.00;4.00;;;;;20.27;54.73;101432.09;5080410;27;45443;-91
2021/08/10 00:58:59;;;;;;;;;5.00;4.00;;;;;20.23;54.56;101427.94;5097078;27;45563;-90
2021/08/10 01:01:25;;;;;;;;;6.00;5.67;;;;;20.24;54.87;101437.59;5097945;27;46373;-91
2021/08/10 01:03:50;;;;;;;;;4.33;4.00;;;;;20.23;55.00;101440.34;5098322;27;45397;-90
2021/08/10 01:06:37;;;;;;;;;4.33;4.00;;;;;20.21;54.62;101452.78;5071747;28;45238;-90
2021/08/10 01:09:09;;;;;;;;;6.33;5.00;;;;;20.16;54.95;101442.53;5091982;27;45423;-91
2021/08/10 01:11:37;;;;;;;;;4.67;4.67;;;;;20.19;55.21;101457.31;5097279;27;46626;-90
2021/08/10 01:14:14;;;;;;;;;8.33;4.00;;;;;20.12;55.52;101447.16;5096450;27;45371;-90
2021/08/10 01:16:45;;;;;;;;;3.33;3.33;;;;;20.13;55.69;101459.44;5096558;27;45454;-89
2021/08/10 01:19:23;;;;;;;;;6.67;4.00;;;;;20.13;56.04;101459.44;5096412;27;45571;-90
2021/08/10 01:21:53;;;;;;;;;4.00;4.00;;;;;20.12;56.84;101462.16;5097358;27;45467;-90
2021/08/10 01:24:22;;;;;;;;;5.00;5.00;;;;;20.10;56.57;101472.00;5095740;27;45966;-91
2021/08/10 01:27:23;;;;;;;;;5.00;4.00;;;;;20.04;56.70;101467.94;5096277;27;45304;-91
2021/08/10 01:30:07;;;;;;;;;6.00;4.00;;;;;20.03;57.08;101474.16;5092329;27;45368;-91
2021/08/10 01:32:36;;;;;;;;;5.67;5.00;;;;;19.96;57.22;101462.28;5097513;27;47738;-91
2021/08/10 01:35:16;;;;;;;;;8.33;6.33;;;;;19.93;57.78;101458.03;5096451;27;45359;-90
2021/08/10 01:37:49;;;;;;;;;7.33;6.33;;;;;19.94;58.03;101457.09;5079564;27;45384;-90
2021/08/10 01:40:36;;;;;;;;;8.00;5.00;;;;;19.93;58.47;101452.75;5096743;27;45574;-90
2021/08/10 01:43:04;;;;;;;;;4.33;3.67;;;;;19.85;57.95;101441.84;5092876;27;48075;-90
2021/08/10 01:45:51;;;;;;;;;;;;;;;;;;;;;
2021/08/10 01:48:56;;;;;;;;;;;;;;;;;;;;;
2021/08/10 01:51:39;;;;;;;;;;;;;;;;;;;;;
2021/08/10 01:54:09;;;;;;;;;7.25;6.50;;;;;19.79;59.18;101444.88;5097744;27;75083;-90
2021/08/10 01:57:10;;;;;;;;;;;;;;;;;;;;;
2021/08/10 02:00:17;;;;;;;;;;;;;;;;;;;;;
2021/08/10 02:03:25;;;;;;;;;;;;;;;;;;;;;
2021/08/10 02:13:25;;;;;;;;;;;;;;;;;;;;;
2021/08/10 02:17:24;;;;;;;;;;;;;;;;;;;;;
2021/08/10 02:20:14;;;;;;;;;;;;;;;;;;;;;
2021/08/10 02:23:19;;;;;;;;;;;;;;;;;;;;;
2021/08/10 02:26:24;;;;;;;;;;;;;;;;;;;;;
2021/08/10 02:29:20;;;;;;;;;;;;;;;;;;;;;
2021/08/10 02:33:09;;;;;;;;;;;;;;;;;;;;;
2021/08/10 02:35:40;;;;;;;;;;;;;;;;;;;;;
2021/08/10 02:38:48;;;;;;;;;;;;;;;;;;;;;
2021/08/10 02:42:01;;;;;;;;;7.33;6.33;;;;;19.57;61.18;101443.59;4825353;29;64144;-90
2021/08/10 02:45:20;;;;;;;;;;;;;;;;;;;;;
2021/08/10 02:48:29;;;;;;;;;;;;;;;;;;;;;
2021/08/10 04:09:35;;;;;;;;;;;;;;;;;;;;;
2021/08/10 04:19:56;;;;;;;;;6.33;5.67;;;;;18.98;63.02;101442.72;5925877;24;45441;-91
2021/08/10 04:40:00;;;;;;;;;8.67;8.00;;;;;18.90;63.97;101443.22;5739472;24;45515;-90
2021/08/10 04:42:56;;;;;;;;;9.00;6.67;;;;;18.93;63.64;101456.22;5863383;24;45227;-91
2021/08/10 04:46:04;;;;;;;;;7.00;4.33;;;;;18.91;64.07;101449.31;5940738;23;45436;-91
2021/08/10 04:50:04;;;;;;;;;;;;;;;;;;;;;
2021/08/10 04:52:45;;;;;;;;;8.00;6.00;;;;;18.90;63.81;101458.19;6010719;23;45506;-91
2021/08/10 04:59:52;;;;;;;;;;;;;;;;;;;;;
2021/08/10 05:05:52;;;;;;;;;;;;;;;;;;;;;
2021/08/10 05:08:17;;;;;;;;;8.00;6.00;;;;;18.80;63.95;101464.00;6296457;22;45274;-91
2021/08/10 05:14:08;;;;;;;;;9.33;7.33;;;;;18.84;64.39;101483.13;6242201;22;45464;-91
2021/08/10 05:16:38;;;;;;;;;7.33;6.00;;;;;18.79;64.22;101466.75;6216457;22;46616;-91
2021/08/10 05:19:20;;;;;;;;;6.67;5.67;;;;;18.82;64.53;101472.69;6242760;22;45306;-92
2021/08/10 05:22:17;;;;;;;;;7.00;6.33;;;;;18.83;64.70;101470.88;6216813;22;44875;-91
2021/08/10 05:24:55;;;;;;;;;8.00;7.00;;;;;18.86;64.78;101469.84;6216854;22;45403;-92
2021/08/10 05:28:11;;;;;;;;;;;;;;;;;;;;;
2021/08/10 06:28:09;;;;;;;;;;;;;;;;;;;;;
2021/08/10 06:35:11;;;;;;;;;;;;;;;;;;;;;
2021/08/10 06:38:11;;;;;;;;;7.67;7.00;;;;;19.10;65.51;101478.13;5892701;24;67506;-92
2021/08/10 06:54:33;;;;;;;;;7.67;7.33;;;;;19.24;65.22;101490.47;5009780;28;45252;-90
2021/08/10 06:57:40;;;;;;;;;7.67;7.67;;;;;19.26;65.32;101485.97;4983490;28;45782;-94
2021/08/10 07:00:41;;;;;;;;;;;;;;;;;;;;;
2021/08/10 07:03:19;;;;;;;;;9.00;9.00;;;;;19.34;64.94;101480.19;4991722;28;76342;-93
2021/08/10 07:06:05;;;;;;;;;;;;;;;;;;;;;
2021/08/10 07:08:43;;;;;;;;;7.00;6.00;;;;;19.36;65.21;101483.59;4991891;28;67846;-93
2021/08/10 07:11:22;;;;;;;;;;;;;;;;;;;;;
2021/08/10 07:13:57;;;;;;;;;5.67;5.00;;;;;19.44;65.55;101483.97;4991557;28;74953;-93
2021/08/10 07:16:27;;;;;;;;;8.33;6.33;;;;;19.47;65.55;101482.91;4992145;28;45341;-94
2021/08/10 07:18:54;;;;;;;;;7.00;7.00;;;;;19.52;65.52;101487.94;4992211;28;45477;-93
2021/08/10 07:21:25;;;;;;;;;8.67;8.67;;;;;19.52;65.43;101485.28;4975667;28;45025;-93
2021/08/10 07:23:52;;;;;;;;;10.50;8.50;;;;;19.59;65.38;101492.72;4975637;28;46651;-93
2021/08/10 07:26:28;;;;;;;;;9.00;7.67;;;;;19.60;65.49;101491.78;4975508;28;45536;-94
2021/08/10 07:28:53;;;;;;;;;9.00;9.00;;;;;19.68;65.55;101495.72;4988855;28;45537;-93
2021/08/10 07:31:22;;;;;;;;;8.00;8.00;;;;;19.69;65.72;101493.00;5036572;27;45625;-93
2021/08/10 07:33:47;;;;;;;;;10.00;8.00;;;;;19.76;65.47;101498.72;5092472;27;46648;-93
2021/08/10 07:36:13;;;;;;;;;8.67;8.00;;;;;19.78;65.35;101502.13;5092689;27;45295;-93
2021/08/10 07:38:38;;;;;;;;;8.67;7.00;;;;;19.86;65.43;101502.47;5092089;27;45310;-93
2021/08/10 07:41:03;;;;;;;;;9.33;6.00;;;;;19.90;65.33;101498.72;5076152;27;45284;-90
2021/08/10 07:43:29;;;;;;;;;8.00;8.00;;;;;19.96;65.60;101509.84;5094420;27;45498;-93
2021/08/10 07:45:54;;;;;;;;;11.33;9.00;;;;;20.03;65.32;101497.94;5085848;27;46582;-92
2021/08/10 07:48:20;;;;;;;;;9.67;8.67;;;;;20.06;65.32;101503.06;5075916;27;44801;-92
2021/08/10 07:50:48;;;;;;;;;11.00;10.00;;;;;20.07;64.74;101501.22;5078049;27;45552;-92
2021/08/10 07:53:14;;;;;;;;;9.67;8.00;;;;;20.09;64.86;101492.25;5096109;27;48072;-92
2021/08/10 07:55:40;;;;;;;;;8.00;7.00;;;;;20.16;64.86;101509.44;5096011;27;45311;-92
2021/08/10 07:58:07;;;;;;;;;10.00;8.67;;;;;20.20;65.02;101509.22;5075417;27;45359;-92
2021/08/10 08:00:32;;;;;;;;;10.00;8.33;;;;;20.24;64.47;101505.44;5086591;27;45305;-91
2021/08/10 08:02:58;;;;;;;;;8.67;7.00;;;;;20.25;64.42;101507.13;5081676;27;47152;-92
2021/08/10 08:05:23;;;;;;;;;5.33;5.33;;;;;20.27;64.76;101507.91;5100284;27;45423;-92
2021/08/10 08:07:51;;;;;;;;;7.33;5.33;;;;;20.27;64.14;101502.63;5082417;27;45401;-92
2021/08/10 08:10:17;;;;;;;;;8.00;7.00;;;;;20.29;64.17;101508.63;5082114;27;45469;-92
2021/08/10 08:12:42;;;;;;;;;7.00;6.67;;;;;20.32;64.07;101511.06;5099981;27;45679;-92
2021/08/10 08:15:08;;;;;;;;;7.33;6.33;;;;;20.34;64.19;101505.69;5081397;27;45469;-91
2021/08/10 08:17:37;;;;;;;;;11.00;7.67;;;;;20.36;64.08;101495.88;5081628;27;45426;-91
2021/08/10 08:20:03;;;;;;;;;11.00;7.33;;;;;20.42;63.30;101500.75;5082166;27;45537;-91
2021/08/10 08:22:28;;;;;;;;;7.67;7.67;;;;;20.39;63.53;101500.94;5081774;27;47798;-92
2021/08/10 08:24:54;;;;;;;;;7.67;7.33;;;;;20.43;63.57;101510.38;5081497;27;44929;-92
2021/08/10 08:27:19;;;;;;;;;10.67;7.67;;;;;20.44;63.45;101501.50;5079958;27;45784;-92
2021/08/10 08:29:45;;;;;;;;;7.00;6.00;;;;;20.49;63.24;101503.81;5099901;27;45351;-91
2021/08/10 08:32:10;;;;;;;;;8.00;6.67;;;;;20.52;62.98;101501.84;5081494;27;46629;-92
2021/08/10 08:34:36;;;;;;;;;8.33;7.33;;;;;20.59;63.16;101512.84;5099809;27;45447;-92
2021/08/10 08:37:03;;;;;;;;;6.67;6.00;;;;;20.61;63.05;101516.25;5100003;27;45305;-91
2021/08/10 08:39:28;;;;;;;;;8.00;5.67;;;;;20.65;63.60;101508.97;5100051;27;45459;-91
2021/08/10 08:41:54;;;;;;;;;8.33;7.33;;;;;20.70;63.06;101505.03;5099352;27;46176;-92
2021/08/10 08:44:20;;;;;;;;;8.00;7.00;;;;;20.78;62.94;101503.69;5091515;27;45408;-90
2021/08/10 08:46:48;;;;;;;;;9.00;7.00;;;;;20.81;63.40;101504.34;5060976;28;45297;-91
2021/08/10 08:49:15;;;;;;;;;6.00;6.00;;;;;20.86;62.22;101505.81;5079396;27;45377;-90
2021/08/10 08:51:44;;;;;;;;;6.67;6.00;;;;;20.88;62.64;101506.59;5078459;27;46126;-90
2021/08/10 08:54:10;;;;;;;;;9.00;8.00;;;;;20.92;62.36;101508.91;5080678;27;45324;-91
2021/08/10 08:56:36;;;;;;;;;8.00;5.00;;;;;20.94;62.59;101495.59;5095944;27;45681;-90
2021/08/10 08:59:03;;;;;;;;;7.00;7.00;;;;;21.02;62.39;101505.66;5080547;27;45531;-90
2021/08/10 09:01:29;;;;;;;;;7.00;6.33;;;;;21.07;62.26;101495.59;5098048;27;45535;-91
2021/08/10 09:03:54;;;;;;;;;7.33;7.33;;;;;21.13;63.05;101486.38;5080516;27;45905;-91
2021/08/10 09:06:21;;;;;;;;;5.33;4.67;;;;;21.23;62.93;101490.09;5080470;27;45348;-90
2021/08/10 09:08:51;;;;;;;;;4.33;4.33;;;;;21.29;62.21;101488.81;5097100;27;45301;-91
2021/08/10 09:11:20;;;;;;;;;5.67;5.67;;;;;21.32;61.74;101492.09;5092547;27;46191;-90
2021/08/10 09:14:01;;;;;;;;;8.00;6.00;;;;;21.38;61.83;101488.16;5079510;27;45502;-90
2021/08/10 09:16:29;;;;;;;;;6.00;5.00;;;;;21.44;61.69;101487.72;5092170;27;45841;-90
2021/08/10 09:18:56;;;;;;;;;8.00;6.33;;;;;21.48;61.08;101497.16;5078465;27;45430;-90
2021/08/10 09:21:23;;;;;;;;;7.00;7.00;;;;;21.49;61.15;101496.19;5088845;27;46265;-90
2021/08/10 09:23:57;;;;;;;;;6.00;5.00;;;;;21.55;61.08;101496.72;5098336;27;45255;-90
2021/08/10 09:26:31;;;;;;;;;7.33;5.67;;;;;21.61;60.87;101496.28;5076196;27;45387;-90
2021/08/10 09:28:59;;;;;;;;;7.00;6.00;;;;;21.63;61.03;101500.50;5086789;27;45470;-90
2021/08/10 09:31:31;;;;;;;;;6.00;5.33;;;;;21.64;60.36;101498.72;5068902;27;47514;-91
2021/08/10 09:34:05;;;;;;;;;7.33;7.00;;;;;21.72;61.25;101506.16;5067121;27;45503;-91
2021/08/10 09:36:35;;;;;;;;;5.00;5.00;;;;;21.83;61.17;101505.38;5071112;27;45461;-91
2021/08/10 09:39:01;;;;;;;;;6.00;5.00;;;;;21.86;60.67;101494.56;5090018;27;45948;-92
2021/08/10 09:41:27;;;;;;;;;4.67;4.67;;;;;21.93;60.15;101493.16;5059660;27;47283;-91
2021/08/10 09:44:28;;;;;;;;;4.33;4.33;;;;;22.01;60.70;101490.81;5090205;27;45284;-92
2021/08/10 09:46:53;;;;;;;;;8.67;6.00;;;;;22.13;60.10;101496.16;5012450;28;46678;-91
2021/08/10 09:49:20;;;;;;;;;6.00;4.00;;;;;22.21;60.17;101488.47;4999868;28;46192;-91
2021/08/10 09:51:50;;;;;;;;;3.33;3.33;;;;;22.33;59.22;101493.81;4998055;28;47564;-91
2021/08/10 09:54:17;;;;;;;;;4.00;4.00;;;;;22.40;59.08;101492.44;5014676;28;45564;-90
2021/08/10 09:56:48;;;;;;;;;6.00;4.00;;;;;22.48;59.82;101486.53;5015126;28;45406;-91
2021/08/10 09:59:16;;;;;;;;;4.33;3.33;;;;;22.64;59.53;101496.88;4998334;28;45520;-89
2021/08/10 10:01:44;;;;;;;;;3.00;3.00;;;;;22.73;58.62;101482.91;4997448;28;46198;-90
2021/08/10 10:04:18;;;;;;;;;2.33;2.33;;;;;22.87;58.62;101476.53;5014204;28;45311;-91
2021/08/10 10:06:46;;;;;;;;;3.67;3.67;;;;;23.00;57.80;101481.75;4995207;28;45406;-91
2021/08/10 10:09:12;;;;;;;;;3.67;3.67;;;;;23.05;57.08;101487.53;4997704;28;45699;-91
2021/08/10 10:11:40;;;;;;;;;6.67;5.33;;;;;23.14;57.16;101487.81;4996772;28;46375;-91
2021/08/10 10:14:06;;;;;;;;;4.00;3.33;;;;;23.17;56.61;101487.53;5013613;28;45578;-91
2021/08/10 10:16:33;;;;;;;;;3.00;3.00;;;;;23.25;56.05;101490.47;5014201;28;45496;-91
2021/08/10 10:19:10;;;;;;;;;3.00;3.00;;;;;23.33;55.60;101487.25;5014969;28;45393;-91
2021/08/10 10:21:41;;;;;;;;;4.00;3.00;;;;;23.37;55.63;101483.34;5068318;27;45810;-90
2021/08/10 10:24:09;;;;;;;;;6.00;4.67;;;;;23.45;55.69;101478.28;5071029;27;45569;-90
2021/08/10 10:26:40;;;;;;;;;5.00;3.33;;;;;23.55;55.20;101489.03;5074236;28;45536;-88
2021/08/10 10:29:06;;;;;;;;;2.00;2.00;;;;;23.65;55.58;101477.66;5075081;28;45451;-88
2021/08/10 10:31:32;;;;;;;;;5.33;5.00;;;;;23.84;54.99;101485.00;5083050;27;45545;-91
2021/08/10 10:33:59;;;;;;;;;3.00;3.00;;;;;24.01;54.41;101488.94;5072085;27;45768;-90
2021/08/10 10:36:24;;;;;;;;;2.33;2.33;;;;;24.15;54.13;101470.06;5078737;27;45288;-89
2021/08/10 10:38:54;;;;;;;;;3.00;2.67;;;;;24.32;53.08;101473.13;5083611;27;45636;-90
2021/08/10 10:41:22;;;;;;;;;4.00;3.00;;;;;24.49;53.03;101473.53;5082971;27;45887;-89
2021/08/10 10:43:51;;;;;;;;;3.00;3.00;;;;;24.60;53.02;101475.28;5094996;27;45658;-90
2021/08/10 10:46:34;;;;;;;;;0.00;0.00;;;;;24.64;51.49;101482.03;5082109;27;45549;-88
2021/08/10 10:49:04;;;;;;;;;2.67;2.67;;;;;24.60;50.38;101475.28;5083407;27;45441;-88
2021/08/10 10:51:37;;;;;;;;;3.33;2.33;;;;;24.63;51.63;101464.41;5084588;27;45628;-87
2021/08/10 10:54:29;;;;;;;;;3.67;3.67;;;;;24.82;50.52;101466.38;5086706;27;45551;-90
2021/08/10 10:56:59;;;;;;;;;2.67;2.00;;;;;24.93;50.32;101452.97;5064014;27;45528;-90
2021/08/10 10:59:33;;;;;;;;;2.00;2.00;;;;;25.08;50.50;101455.25;5075395;27;45340;-90
2021/08/10 11:02:32;;;;;;;;;2.00;2.00;;;;;25.35;50.33;101456.50;5078877;27;46095;-91
2021/08/10 11:05:04;;;;;;;;;3.00;2.00;;;;;25.64;50.48;101461.06;5094296;27;45724;-86
2021/08/10 11:07:36;;;;;;;;;4.00;2.67;;;;;25.89;50.34;101456.22;5062887;27;45534;-89
2021/08/10 11:10:31;;;;;;;;;3.00;2.00;;;;;26.10;50.18;101445.41;5075310;27;45515;-88
2021/08/10 11:12:57;;;;;;;;;2.33;2.33;;;;;26.26;48.49;101449.38;5090503;27;45488;-88
2021/08/10 11:15:45;;;;;;;;;4.67;2.67;;;;;26.30;48.32;101453.44;5062062;27;45542;-91
2021/08/10 11:18:10;;;;;;;;;2.00;2.00;;;;;26.32;48.55;101450.63;5077039;27;45639;-89
2021/08/10 11:20:45;;;;;;;;;2.00;2.00;;;;;26.38;48.45;101458.91;5080011;27;45014;-86
2021/08/10 11:23:37;;;;;;;;;5.33;2.00;;;;;26.37;48.01;101459.03;5093011;27;45340;-88
2021/08/10 11:26:05;;;;;;;;;4.00;3.00;;;;;26.28;47.46;101458.06;4979344;28;45589;-87
2021/08/10 11:28:43;;;;;;;;;3.00;2.00;;;;;26.17;47.31;101453.69;4955049;28;45474;-88
2021/08/10 11:31:11;;;;;;;;;4.00;3.33;;;;;26.07;47.85;101455.53;4981080;28;45841;-88
2021/08/10 11:33:40;;;;;;;;;4.67;2.67;;;;;26.02;47.54;101455.97;5008621;28;46288;-88
2021/08/10 11:36:16;;;;;;;;;2.00;2.00;;;;;26.08;48.45;101459.88;4992759;28;45957;-88
2021/08/10 11:38:44;;;;;;;;;4.00;4.00;;;;;26.18;48.59;101452.72;4999524;28;45572;-88
2021/08/10 11:41:30;;;;;;;;;5.00;3.00;;;;;26.40;48.54;101451.63;5001125;28;45520;-89
2021/08/10 11:43:57;;;;;;;;;4.33;2.67;;;;;26.57;47.14;101448.34;4994122;28;46163;-87
2021/08/10 11:46:29;;;;;;;;;4.00;2.00;;;;;26.63;47.66;101450.44;4981161;28;45359;-87
2021/08/10 11:49:02;;;;;;;;;3.00;3.00;;;;;26.76;47.52;101450.13;4996229;28;45474;-88
2021/08/10 11:51:30;;;;;;;;;3.33;3.00;;;;;26.90;46.97;101459.50;4978293;28;47069;-88
2021/08/10 11:53:58;;;;;;;;;2.67;1.67;;;;;27.06;46.63;101464.25;4981792;28;47409;-89
2021/08/10 11:56:35;;;;;;;;;2.67;2.67;;;;;27.14;45.07;101469.72;4993958;28;45758;-88
2021/08/10 11:59:02;;;;;;;;;1.33;0.67;;;;;27.03;45.40;101460.03;4979030;28;46005;-87
2021/08/10 12:01:29;;;;;;;;;2.00;2.00;;;;;26.97;45.58;101449.94;4993066;28;45318;-88
2021/08/10 12:04:07;;;;;;;;;3.67;2.00;;;;;27.00;44.76;101463.00;5068789;28;45395;-88
2021/08/10 12:06:32;;;;;;;;;2.00;0.67;;;;;26.92;44.40;101457.53;5077487;27;45351;-88
2021/08/10 12:09:05;;;;;;;;;0.00;0.00;;;;;26.85;44.36;101456.44;5070466;28;45457;-88
2021/08/10 12:11:31;;;;;;;;;1.00;1.00;;;;;26.74;43.95;101452.94;5071127;27;45405;-86
2021/08/10 12:14:18;;;;;;;;;1.00;1.00;;;;;26.63;44.10;101456.63;5069518;27;45865;-88
2021/08/10 12:17:04;;;;;;;;;1.33;0.00;;;;;26.60;44.71;101451.56;5062116;28;45937;-88
2021/08/10 12:19:33;;;;;;;;;0.00;0.00;;;;;26.71;44.71;101449.72;5071817;27;45332;-88
2021/08/10 12:21:59;;;;;;;;;1.00;0.00;;;;;26.90;45.55;101454.97;5058989;28;45471;-88
2021/08/10 12:24:30;;;;;;;;;3.00;1.33;;;;;27.07;44.21;101445.41;5068248;27;45474;-88
2021/08/10 12:26:55;;;;;;;;;1.00;1.00;;;;;27.13;44.97;101437.78;5075550;27;45485;-88
2021/08/10 12:29:21;;;;;;;;;2.00;1.33;;;;;27.15;43.51;101449.16;5075000;27;45449;-88
2021/08/10 12:31:46;;;;;;;;;1.67;1.00;;;;;27.08;43.76;101447.09;5079040;27;45531;-87
2021/08/10 12:34:15;;;;;;;;;1.00;1.00;;;;;27.03;44.31;101441.34;5094271;27;46308;-87
2021/08/10 12:36:51;;;;;;;;;1.67;1.00;;;;;27.07;44.30;101439.22;5066985;27;45487;-88
2021/08/10 12:39:16;;;;;;;;;1.00;1.00;;;;;27.16;44.01;101443.69;5071894;27;45380;-87
2021/08/10 12:41:42;;;;;;;;;2.67;1.00;;;;;27.18;44.04;101441.69;5069786;27;45391;-88
2021/08/10 12:44:11;;;;;;;;;0.67;0.67;;;;;27.28;43.52;101439.00;5075167;27;47481;-88
2021/08/10 12:46:37;;;;;;;;;0.33;0.00;;;;;27.41;43.33;101438.66;5078234;28;45442;-88
2021/08/10 12:49:16;;;;;;;;;0.00;0.00;;;;;27.51;43.41;101435.91;5073463;27;44859;-87
2021/08/10 12:52:00;;;;;;;;;0.33;0.33;;;;;27.51;43.27;101430.56;5078482;28;45254;-88
2021/08/10 12:54:32;;;;;;;;;0.67;0.67;;;;;27.54;43.41;101432.91;5078125;28;45535;-88
2021/08/10 12:57:00;;;;;;;;;0.33;0.33;;;;;27.74;44.45;101435.50;5076665;27;46668;-88
2021/08/10 12:59:39;;;;;;;;;0.67;0.33;;;;;28.01;43.08;101421.19;5054747;27;45345;-88
2021/08/10 13:02:05;;;;;;;;;1.67;0.67;;;;;28.13;42.72;101420.94;5055937;28;45666;-88
2021/08/10 13:04:31;;;;;;;;;0.00;0.00;;;;;28.02;42.34;101422.03;5061082;28;45524;-89
2021/08/10 13:07:14;;;;;;;;;1.33;1.33;;;;;27.93;42.15;101430.97;5075513;27;45355;-88
2021/08/10 13:09:57;;;;;;;;;1.67;0.00;;;;;27.83;42.27;101426.56;5055232;28;45587;-90
2021/08/10 13:12:23;;;;;;;;;2.67;1.00;;;;;27.73;42.73;101431.97;5055625;28;45448;-88
2021/08/10 13:14:56;;;;;;;;;0.00;0.00;;;;;27.66;42.57;101430.91;5054168;28;47034;-89
2021/08/10 13:17:30;;;;;;;;;0.00;0.00;;;;;27.59;42.01;101430.66;5072130;27;45350;-89
2021/08/10 13:20:08;;;;;;;;;0.67;0.33;;;;;27.51;43.13;101429.69;5071244;27;45798;-88
2021/08/10 13:22:41;;;;;;;;;0.33;0.33;;;;;27.35;41.84;101428.53;5054028;28;45388;-88
2021/08/10 13:25:08;;;;;;;;;0.00;0.00;;;;;27.20;42.76;101428.19;5064834;28;47386;-88
2021/08/10 13:27:33;;;;;;;;;2.00;1.33;;;;;27.07;42.54;101426.72;5074395;27;45353;-89
2021/08/10 13:29:58;;;;;;;;;0.00;0.00;;;;;26.92;43.00;101431.69;5073867;28;45703;-88
2021/08/10 13:32:24;;;;;;;;;0.00;0.00;;;;;26.79;42.67;101425.78;5056913;27;45383;-88
2021/08/10 13:34:51;;;;;;;;;0.33;0.33;;;;;26.69;43.77;101431.19;5054894;28;45646;-89
2021/08/10 13:37:17;;;;;;;;;1.00;1.00;;;;;26.55;43.35;101422.66;5055432;28;45566;-89
2021/08/10 13:39:42;;;;;;;;;1.00;1.00;;;;;26.47;43.72;101427.84;5054860;28;45442;-90
2021/08/10 13:42:09;;;;;;;;;2.00;0.33;;;;;26.35;43.90;101423.66;5056413;28;45494;-91
2021/08/10 13:44:34;;;;;;;;;1.67;1.00;;;;;26.20;43.64;101423.25;5055272;28;45669;-89
2021/08/10 13:47:00;;;;;;;;;1.00;1.00;;;;;26.10;44.13;101418.75;5054736;28;45525;-88
2021/08/10 13:49:27;;;;;;;;;0.00;0.00;;;;;26.05;44.43;101413.00;5073446;27;45532;-89
2021/08/10 13:51:53;;;;;;;;;0.00;0.00;;;;;26.04;44.63;101418.47;5095637;27;45501;-88
2021/08/10 13:54:18;;;;;;;;;1.00;0.00;;;;;26.03;45.29;101422.97;5095279;27;45410;-88
2021/08/10 13:56:44;;;;;;;;;0.00;0.00;;;;;26.07;45.12;101420.84;5076777;27;45521;-89
2021/08/10 13:59:10;;;;;;;;;0.67;0.67;;;;;26.07;45.56;101412.88;5094830;27;45429;-90
2021/08/10 14:01:46;;;;;;;;;1.00;1.00;;;;;26.09;44.83;101410.88;5077280;27;45497;-89
2021/08/10 14:04:13;;;;;;;;;3.00;1.33;;;;;26.13;45.07;101412.28;5092580;27;45573;-89
2021/08/10 14:06:39;;;;;;;;;2.00;0.33;;;;;26.14;45.01;101406.81;5074562;27;45455;-89
2021/08/10 14:09:05;;;;;;;;;1.00;0.00;;;;;26.15;44.79;101410.34;5075075;28;45843;-89
2021/08/10 14:11:31;;;;;;;;;1.00;1.00;;;;;26.18;45.11;101420.72;5074729;27;45377;-89
2021/08/10 14:13:56;;;;;;;;;0.00;0.00;;;;;26.22;45.38;101413.25;5059990;28;47783;-89
2021/08/10 14:16:24;;;;;;;;;0.00;0.00;;;;;26.26;45.03;101410.22;5074599;27;45676;-88
2021/08/10 14:18:55;;;;;;;;;2.00;0.00;;;;;26.32;45.64;101411.47;5082676;27;45513;-88
2021/08/10 14:21:21;;;;;;;;;0.00;0.00;;;;;26.37;44.95;101406.53;5059931;28;45328;-88
2021/08/10 14:23:47;;;;;;;;;0.00;0.00;;;;;26.43;45.24;101405.13;5074172;27;46525;-88
2021/08/10 14:26:23;;;;;;;;;0.00;0.00;;;;;26.46;44.97;101401.31;5074990;27;45423;-90
2021/08/10 14:28:48;;;;;;;;;3.00;1.00;;;;;26.51;45.04;101423.91;5074359;27;45579;-90
2021/08/10 14:31:14;;;;;;;;;0.00;0.00;;;;;26.48;44.29;101415.38;5056315;27;45611;-89
2021/08/10 14:33:41;;;;;;;;;0.00;0.00;;;;;26.50;44.79;101411.56;5074435;27;45782;-89
2021/08/10 14:36:07;;;;;;;;;0.33;0.33;;;;;26.57;44.78;101416.31;5075740;27;45420;-89
2021/08/10 14:38:33;;;;;;;;;0.00;0.00;;;;;26.58;44.31;101420.69;5055527;28;45483;-89
2021/08/10 14:40:59;;;;;;;;;0.33;0.33;;;;;26.54;44.29;101414.78;5091541;27;45671;-89
2021/08/10 14:43:25;;;;;;;;;1.67;0.33;;;;;26.52;44.70;101412.25;5094352;27;46121;-90
2021/08/10 14:45:54;;;;;;;;;3.00;0.67;;;;;26.48;44.90;101413.53;5100484;27;45737;-92
2021/08/10 14:48:20;;;;;;;;;0.00;0.00;;;;;26.44;44.05;101405.97;5084938;27;45483;-91
2021/08/10 14:50:45;;;;;;;;;2.67;0.33;;;;;26.39;44.72;101404.56;5057410;28;45407;-93
2021/08/10 14:53:11;;;;;;;;;0.00;0.00;;;;;26.38;44.59;101412.72;5059419;28;48384;-89
2021/08/10 14:55:37;;;;;;;;;0.00;0.00;;;;;26.32;44.10;101411.47;5062565;28;45609;-90
2021/08/10 14:58:03;;;;;;;;;1.67;0.67;;;;;26.30;44.41;101415.25;5070885;27;46292;-91
2021/08/10 15:00:29;;;;;;;;;0.00;0.00;;;;;26.24;44.38;101411.34;5074591;28;44851;-92
2021/08/10 15:02:54;;;;;;;;;0.00;0.00;;;;;26.21;44.74;101412.44;5073314;27;47314;-92
2021/08/10 15:05:19;;;;;;;;;0.00;0.00;;;;;26.18;44.48;101407.38;5070991;27;45324;-91
2021/08/10 15:07:45;;;;;;;;;1.00;0.00;;;;;26.19;45.04;101413.56;5068081;28;45628;-91
2021/08/10 15:10:11;;;;;;;;;0.00;0.00;;;;;26.19;44.48;101410.91;5055695;28;45595;-92
2021/08/10 15:12:40;;;;;;;;;0.00;0.00;;;;;26.23;44.45;101405.16;5061468;28;47423;-90
2021/08/10 15:15:07;;;;;;;;;1.00;0.00;;;;;26.24;44.44;101412.16;5066485;28;45450;-91
2021/08/10 15:17:33;;;;;;;;;0.00;0.00;;;;;26.21;45.14;101417.78;5062585;28;45530;-90
2021/08/10 15:20:00;;;;;;;;;0.00;0.00;;;;;26.17;44.15;101419.03;5058730;28;45630;-91
2021/08/10 15:22:25;;;;;;;;;0.00;0.00;;;;;26.10;44.48;101415.25;5061043;28;45367;-90
2021/08/10 15:24:52;;;;;;;;;2.00;0.00;;;;;26.09;44.59;101411.75;5058811;28;45605;-92
2021/08/10 15:27:18;;;;;;;;;0.00;0.00;;;;;26.11;44.41;101416.94;5059478;28;45333;-93
2021/08/10 15:29:43;;;;;;;;;0.00;0.00;;;;;26.04;44.63;101415.78;5059016;28;45495;-91
2021/08/10 15:32:09;;;;;;;;;0.00;0.00;;;;;26.00;44.81;101405.44;5061880;28;48119;-91
2021/08/10 15:34:37;;;;;;;;;0.00;0.00;;;;;26.01;43.93;101407.09;5074857;27;45558;-92
2021/08/10 15:37:03;;;;;;;;;0.00;0.00;;;;;25.97;44.88;101405.69;5058250;28;45395;-92
2021/08/10 15:39:30;;;;;;;;;0.00;0.00;;;;;25.96;44.90;101412.03;5058824;28;45801;-91
2021/08/10 15:41:55;;;;;;;;;0.00;0.00;;;;;25.92;44.95;101405.28;5059118;27;47128;-91
2021/08/10 15:44:21;;;;;;;;;0.00;0.00;;;;;25.91;44.68;101395.59;5066078;28;45431;-93